YOS weather

Owen Sound / Billy Bishop Regional Airport
Owen Sound, Ontario, Canada

Public forecast

Using degrees Celsius for public forecast. Weather courtesy of forecast.io.

Closest aviation weather report (METAR) to Owen Sound / Billy Bishop Regional Airport

Closest report is Wiarton Airport, 14.8 nm (27.5 km) NW. Retrieved 2020/07/16 16:00 UTC (49 minutes ago):

CYVV 161600Z 15005KT 100V170 15SM -SHRA FEW003 OVC030 22/20 A3002 RMK SF1SC8 SF TR CVCTV CLD EMBD SLP166 DENSITY ALT 1600FT

Closest aviation forecast (TAF) to Owen Sound / Billy Bishop Regional Airport

Closest forecast is Wiarton Airport, 14.8 nm (27.5 km) NW. Retrieved 2020/07/16 14:00 UTC (3 hours ago):

TAF CYVV 161338Z 1614/1623 VRB03KT P6SM OVC070 TEMPO 1614/1618 3SM -SHRA BR OVC015 FM161800 VRB03KT P6SM SCT015 BKN060 TEMPO 1618/1623 5SM -SHRA BR OVC015 RMK NXT FCST BY 162000Z